createdAt,value
2018-05-12T00:00:10.019Z,17.00
2018-05-12T00:02:37.456Z,17.27
2018-05-12T00:05:04.910Z,18.03
2018-05-12T00:07:32.346Z,17.80
2018-05-12T00:09:59.842Z,16.80
2018-05-12T00:12:27.324Z,17.20
2018-05-12T00:14:54.908Z,17.53
2018-05-12T00:17:22.290Z,17.83
2018-05-12T00:19:49.742Z,16.47
2018-05-12T00:22:17.182Z,17.47
2018-05-12T00:24:44.605Z,18.57
2018-05-12T00:27:12.049Z,17.37
2018-05-12T00:29:39.498Z,19.37
2018-05-12T00:32:06.921Z,17.63
2018-05-12T00:34:34.393Z,19.47
2018-05-12T00:37:01.830Z,18.90
2018-05-12T00:39:29.257Z,19.60
2018-05-12T00:41:56.705Z,17.47
2018-05-12T00:44:24.155Z,18.83
2018-05-12T00:46:51.584Z,17.87
2018-05-12T00:49:19.142Z,19.00
2018-05-12T00:51:46.867Z,18.80
2018-05-12T00:54:14.357Z,18.13
2018-05-12T00:56:41.810Z,18.07
2018-05-12T00:59:09.275Z,17.30
2018-05-12T01:01:36.712Z,17.90
2018-05-12T01:04:04.153Z,18.13
2018-05-12T01:06:31.638Z,19.05
2018-05-12T01:08:59.069Z,18.10
2018-05-12T01:11:26.558Z,16.83
2018-05-12T01:13:54.016Z,18.53
2018-05-12T01:16:21.454Z,18.60
2018-05-12T01:18:48.902Z,17.67
2018-05-12T01:21:16.331Z,17.97
2018-05-12T01:23:43.760Z,18.03
2018-05-12T01:26:11.302Z,19.83
2018-05-12T01:28:38.735Z,21.00
2018-05-12T01:31:06.211Z,18.77
2018-05-12T01:33:33.676Z,20.30
2018-05-12T01:36:01.106Z,17.70
2018-05-12T01:38:28.537Z,20.43
2018-05-12T01:40:56.449Z,17.77
2018-05-12T01:43:23.879Z,20.10
2018-05-12T01:45:51.316Z,19.63
2018-05-12T01:48:18.764Z,21.77
2018-05-12T01:50:46.196Z,18.03
2018-05-12T01:53:13.624Z,22.23
2018-05-12T01:55:41.076Z,20.93
2018-05-12T01:58:08.517Z,20.17
2018-05-12T02:00:35.951Z,19.43
2018-05-12T02:03:03.397Z,23.60
2018-05-12T02:05:30.920Z,30.83
2018-05-12T02:07:59.040Z,24.47
2018-05-12T02:10:26.492Z,20.03
2018-05-12T02:12:53.938Z,22.17
2018-05-12T02:15:21.382Z,20.03
2018-05-12T02:17:48.840Z,19.50
2018-05-12T02:20:16.278Z,20.67
2018-05-12T02:22:43.710Z,20.90
2018-05-12T02:25:11.157Z,24.80
2018-05-12T02:27:38.651Z,20.00
2018-05-12T02:30:06.094Z,22.13
2018-05-12T02:32:33.542Z,19.40
2018-05-12T02:35:00.978Z,18.67
2018-05-12T02:37:28.443Z,20.63
2018-05-12T02:39:55.898Z,19.67
2018-05-12T02:42:23.397Z,21.47
2018-05-12T02:44:50.861Z,20.00
2018-05-12T02:47:18.309Z,20.40
2018-05-12T02:49:45.746Z,19.50
2018-05-12T02:52:13.193Z,19.83
2018-05-12T02:54:40.681Z,22.60
2018-05-12T02:57:08.112Z,20.80
2018-05-12T02:59:35.625Z,19.73
2018-05-12T03:02:03.149Z,21.03
2018-05-12T03:04:30.611Z,21.07
2018-05-12T03:06:58.042Z,23.67
2018-05-12T03:09:25.490Z,23.27
2018-05-12T03:11:52.923Z,21.63
2018-05-12T03:14:20.392Z,19.53
2018-05-12T03:16:47.865Z,21.30
2018-05-12T03:19:15.404Z,21.43
2018-05-12T03:21:42.841Z,21.70
2018-05-12T03:24:10.374Z,21.87
2018-05-12T03:26:37.809Z,21.33
2018-05-12T03:29:05.281Z,21.83
2018-05-12T03:31:32.730Z,20.60
2018-05-12T03:34:00.165Z,22.43
2018-05-12T03:36:27.599Z,20.98
2018-05-12T03:38:55.039Z,23.20
2018-05-12T03:41:22.487Z,21.80
2018-05-12T03:43:49.913Z,22.63
2018-05-12T03:46:17.357Z,23.87
2018-05-12T03:48:44.785Z,21.20
2018-05-12T03:51:12.224Z,26.40
2018-05-12T03:53:39.669Z,25.10
2018-05-12T03:56:07.144Z,24.00
2018-05-12T03:58:34.600Z,19.90
2018-05-12T04:01:02.120Z,22.23
2018-05-12T04:03:29.557Z,22.90
2018-05-12T04:06:08.910Z,23.47
2018-05-12T04:08:48.232Z,22.50
2018-05-12T04:11:27.548Z,21.60
2018-05-12T04:13:55.055Z,22.73
2018-05-12T04:16:22.484Z,21.10
2018-05-12T04:18:49.928Z,21.47
2018-05-12T04:21:18.226Z,22.90
2018-05-12T04:23:45.680Z,34.10
2018-05-12T04:26:13.135Z,23.37
2018-05-12T04:28:40.572Z,24.83
2018-05-12T04:31:08.018Z,20.47
2018-05-12T04:33:35.477Z,20.80
2018-05-12T04:36:02.906Z,27.63
2018-05-12T04:38:30.503Z,22.03
2018-05-12T04:40:58.046Z,21.20
2018-05-12T04:43:25.579Z,22.00
2018-05-12T04:45:52.996Z,22.53
2018-05-12T04:48:20.473Z,20.93
2018-05-12T04:50:47.900Z,22.47
2018-05-12T04:53:15.336Z,21.53
2018-05-12T04:55:42.785Z,20.43
2018-05-12T04:58:10.217Z,20.87
2018-05-12T05:00:37.689Z,19.93
2018-05-12T05:03:05.221Z,22.07
2018-05-12T05:05:32.653Z,20.30
2018-05-12T05:08:00.083Z,20.90
2018-05-12T05:10:27.639Z,22.23
2018-05-12T05:12:55.081Z,21.53
2018-05-12T05:15:22.606Z,22.17
2018-05-12T05:17:49.972Z,23.40
2018-05-12T05:20:17.519Z,22.70
2018-05-12T05:22:44.950Z,21.93
2018-05-12T05:25:12.396Z,21.43
2018-05-12T05:27:39.840Z,22.43
2018-05-12T05:30:07.982Z,22.77
2018-05-12T05:32:35.429Z,20.50
2018-05-12T05:35:02.860Z,22.23
2018-05-12T05:37:30.327Z,20.07
2018-05-12T05:39:57.778Z,20.70
2018-05-12T05:42:25.237Z,20.00
2018-05-12T05:44:52.701Z,21.30
2018-05-12T05:47:20.153Z,21.37
2018-05-12T05:49:47.597Z,20.43
2018-05-12T05:52:15.033Z,21.33
2018-05-12T05:54:42.486Z,20.30
2018-05-12T05:57:09.947Z,20.07
2018-05-12T05:59:37.386Z,20.33
2018-05-12T06:02:04.842Z,21.27
2018-05-12T06:04:32.295Z,20.43
2018-05-12T06:06:59.754Z,21.70
2018-05-12T06:09:27.201Z,21.57
2018-05-12T06:11:54.721Z,19.73
2018-05-12T06:14:22.154Z,19.83
2018-05-12T06:16:49.604Z,19.13
2018-05-12T06:19:17.041Z,20.80
2018-05-12T06:21:44.553Z,19.57
2018-05-12T06:24:12.000Z,19.90
2018-05-12T06:26:39.437Z,20.10
2018-05-12T06:29:06.932Z,19.07
2018-05-12T06:31:34.384Z,18.73
2018-05-12T06:34:01.827Z,22.80
2018-05-12T06:36:29.264Z,19.53
2018-05-12T06:38:56.722Z,19.83
2018-05-12T06:41:24.152Z,20.00
2018-05-12T06:43:51.623Z,20.03
2018-05-12T06:46:19.064Z,21.40
2018-05-12T06:48:46.603Z,20.90
2018-05-12T06:51:14.038Z,20.00
2018-05-12T06:53:41.489Z,19.97
2018-05-12T06:56:08.926Z,19.60
2018-05-12T06:58:36.424Z,18.53
2018-05-12T07:01:03.987Z,19.83
2018-05-12T07:03:31.433Z,21.20
2018-05-12T07:05:58.889Z,34.37
2018-05-12T07:08:26.441Z,30.53
2018-05-12T07:10:53.873Z,17.27
2018-05-12T07:13:21.305Z,19.30
2018-05-12T07:15:49.123Z,18.70
2018-05-12T07:18:16.579Z,20.10
2018-05-12T07:20:44.033Z,20.13
2018-05-12T07:23:11.494Z,17.73
2018-05-12T07:25:38.945Z,19.00
2018-05-12T07:28:06.392Z,17.47
2018-05-12T07:30:33.839Z,17.37
2018-05-12T07:33:01.272Z,21.13
2018-05-12T07:35:28.714Z,17.60
2018-05-12T07:37:56.157Z,14.40
2018-05-12T07:40:23.594Z,14.83
2018-05-12T07:42:51.026Z,14.80
2018-05-12T07:45:18.484Z,15.83
2018-05-12T07:47:45.965Z,15.53
2018-05-12T07:50:13.470Z,15.27
2018-05-12T07:52:40.930Z,14.27
2018-05-12T07:55:08.440Z,14.97
2018-05-12T07:57:35.897Z,13.70
2018-05-12T08:00:03.360Z,13.17
2018-05-12T08:02:30.798Z,14.57
2018-05-12T08:04:58.265Z,17.43
2018-05-12T08:07:25.737Z,62.90
2018-05-12T08:09:53.172Z,25.70
2018-05-12T08:12:20.608Z,13.33
2018-05-12T08:14:48.045Z,13.33
2018-05-12T08:17:15.477Z,14.00
2018-05-12T08:19:42.941Z,14.00
2018-05-12T08:22:10.432Z,12.13
2018-05-12T08:24:37.921Z,12.80
2018-05-12T08:27:05.380Z,12.83
2018-05-12T08:29:32.827Z,12.27
2018-05-12T08:32:00.256Z,14.43
2018-05-12T08:34:28.019Z,14.83
2018-05-12T08:36:55.470Z,16.03
2018-05-12T08:39:23.044Z,14.50
2018-05-12T08:41:50.474Z,14.80
2018-05-12T08:44:17.932Z,16.17
2018-05-12T08:46:45.444Z,16.40
2018-05-12T08:49:12.886Z,16.03
2018-05-12T08:51:40.337Z,14.23
2018-05-12T08:54:07.814Z,16.10
2018-05-12T08:56:35.254Z,12.17
2018-05-12T08:59:02.706Z,13.87
2018-05-12T09:01:30.275Z,14.50
2018-05-12T09:03:57.717Z,13.57
2018-05-12T09:06:25.157Z,11.03
2018-05-12T09:08:52.662Z,17.83
2018-05-12T09:11:20.088Z,11.10
2018-05-12T09:13:47.537Z,10.57
2018-05-12T09:16:14.973Z,11.60
2018-05-12T09:18:42.414Z,10.73
2018-05-12T09:21:09.961Z,11.53
2018-05-12T09:23:37.397Z,13.27
2018-05-12T09:26:04.839Z,12.50
2018-05-12T09:28:32.297Z,10.57
2018-05-12T09:30:59.727Z,9.40
2018-05-12T09:33:27.153Z,9.33
2018-05-12T09:35:54.683Z,10.73
2018-05-12T09:38:22.132Z,11.07
2018-05-12T09:40:49.564Z,10.40
2018-05-12T09:43:17.004Z,10.47
2018-05-12T09:45:44.518Z,12.10
2018-05-12T09:48:11.956Z,12.93
2018-05-12T09:50:39.412Z,9.50
2018-05-12T09:53:06.894Z,10.13
2018-05-12T09:55:34.321Z,10.77
2018-05-12T09:58:01.842Z,11.03
2018-05-12T10:00:29.381Z,12.50
2018-05-12T10:02:56.832Z,10.10
2018-05-12T10:05:24.340Z,10.47
2018-05-12T10:07:51.769Z,10.43
2018-05-12T10:10:19.282Z,9.50
2018-05-12T10:12:46.751Z,9.53
2018-05-12T10:15:14.859Z,9.33
2018-05-12T10:17:42.285Z,8.70
2018-05-12T10:20:09.744Z,10.57
2018-05-12T10:22:37.192Z,9.17
2018-05-12T10:25:04.654Z,8.70
2018-05-12T10:27:32.097Z,9.67
2018-05-12T10:29:59.516Z,8.77
2018-05-12T10:32:27.013Z,8.97
2018-05-12T10:34:54.449Z,9.07
2018-05-12T10:37:21.921Z,9.07
2018-05-12T10:39:49.366Z,10.10
2018-05-12T10:42:16.796Z,9.10
2018-05-12T10:44:44.300Z,8.53
2018-05-12T10:47:11.761Z,9.47
2018-05-12T10:49:39.202Z,7.80
2018-05-12T10:52:06.629Z,8.93
2018-05-12T10:54:34.057Z,9.43
2018-05-12T10:57:01.568Z,8.47
2018-05-12T10:59:29.000Z,7.53
2018-05-12T11:01:56.515Z,8.23
2018-05-12T11:04:23.872Z,9.77
2018-05-12T11:06:51.339Z,8.30
2018-05-12T11:09:18.772Z,8.87
2018-05-12T11:11:46.235Z,8.13
2018-05-12T11:14:13.664Z,7.10
2018-05-12T11:16:41.098Z,6.60
2018-05-12T11:19:09.274Z,7.10
2018-05-12T11:21:36.795Z,7.83
2018-05-12T11:24:04.234Z,7.23
2018-05-12T11:26:31.677Z,7.70
2018-05-12T11:28:59.147Z,7.10
2018-05-12T11:31:26.575Z,5.90
2018-05-12T11:33:54.009Z,7.20
2018-05-12T11:36:22.375Z,6.15
2018-05-12T11:38:49.827Z,5.60
2018-05-12T11:41:17.422Z,5.00
2018-05-12T11:43:44.910Z,6.00
2018-05-12T11:46:12.343Z,4.75
2018-05-12T11:48:39.777Z,4.95
2018-05-12T11:51:07.213Z,5.03
2018-05-12T11:53:34.646Z,4.75
2018-05-12T11:56:02.081Z,5.25
2018-05-12T11:58:29.562Z,4.53
2018-05-12T12:00:57.001Z,5.45
2018-05-12T12:03:24.456Z,5.28
2018-05-12T12:05:51.905Z,4.90
2018-05-12T12:08:19.395Z,4.80
2018-05-12T12:10:46.833Z,4.82
2018-05-12T12:13:14.296Z,4.65
2018-05-12T12:15:41.844Z,4.30
2018-05-12T12:18:09.281Z,4.55
2018-05-12T12:20:36.730Z,4.72
2018-05-12T12:23:04.158Z,4.65
2018-05-12T12:25:31.596Z,4.75
2018-05-12T12:27:59.026Z,4.37
2018-05-12T12:30:26.448Z,4.97
2018-05-12T12:32:53.881Z,4.60
2018-05-12T12:35:21.403Z,4.03
2018-05-12T12:37:48.857Z,3.60
2018-05-12T12:40:16.305Z,3.83
2018-05-12T12:42:43.745Z,3.65
2018-05-12T12:45:11.212Z,4.90
2018-05-12T12:47:38.633Z,4.37
2018-05-12T12:50:06.053Z,5.07
2018-05-12T12:52:33.468Z,5.07
2018-05-12T12:55:00.905Z,7.55
2018-05-12T12:57:28.332Z,4.43
2018-05-12T12:59:55.771Z,4.75
2018-05-12T13:02:23.241Z,4.75
2018-05-12T13:04:50.704Z,4.30
2018-05-12T13:07:18.124Z,4.28
2018-05-12T13:09:45.612Z,6.20
2018-05-12T13:12:13.059Z,4.47
2018-05-12T13:14:40.488Z,5.15
2018-05-12T13:17:07.966Z,5.03
2018-05-12T13:19:35.393Z,5.53
2018-05-12T13:22:02.849Z,5.68
2018-05-12T13:24:30.281Z,4.80
2018-05-12T13:26:57.713Z,5.65
2018-05-12T13:29:25.137Z,6.05
2018-05-12T13:31:52.613Z,6.20
2018-05-12T13:34:20.498Z,5.95
2018-05-12T13:36:47.929Z,7.07
2018-05-12T13:39:15.381Z,7.00
2018-05-12T13:41:42.843Z,7.03
2018-05-12T13:44:10.293Z,6.63
2018-05-12T13:46:37.736Z,7.50
2018-05-12T13:49:05.212Z,7.40
2018-05-12T13:51:32.644Z,6.23
2018-05-12T13:54:00.198Z,6.30
2018-05-12T13:56:27.628Z,6.33
2018-05-12T13:58:55.056Z,7.20
2018-05-12T14:01:22.510Z,6.93
2018-05-12T14:03:49.944Z,6.30
2018-05-12T14:06:17.425Z,5.75
2018-05-12T14:08:44.865Z,5.50
2018-05-12T14:11:12.292Z,5.53
2018-05-12T14:13:39.780Z,5.68
2018-05-12T14:16:07.338Z,5.07
2018-05-12T14:18:34.696Z,5.05
2018-05-12T14:21:02.141Z,7.95
2018-05-12T14:23:29.580Z,5.87
2018-05-12T14:25:57.080Z,5.70
2018-05-12T14:28:24.518Z,5.90
2018-05-12T14:30:51.966Z,5.05
2018-05-12T14:33:19.395Z,4.85
2018-05-12T14:35:46.892Z,4.93
2018-05-12T14:38:14.340Z,5.68
2018-05-12T14:40:41.774Z,5.25
2018-05-12T14:43:09.340Z,4.95
2018-05-12T14:45:36.781Z,5.40
2018-05-12T14:48:04.206Z,5.07
2018-05-12T14:50:31.811Z,4.70
2018-05-12T14:52:59.251Z,4.75
2018-05-12T14:55:26.712Z,4.65
2018-05-12T14:57:54.488Z,4.78
2018-05-12T15:00:21.929Z,4.47
2018-05-12T15:02:49.356Z,4.30
2018-05-12T15:05:16.904Z,4.72
2018-05-12T15:07:44.397Z,4.73
2018-05-12T15:10:11.832Z,4.43
2018-05-12T15:12:39.272Z,5.32
2018-05-12T15:15:06.820Z,4.50
2018-05-12T15:17:34.258Z,4.63
2018-05-12T15:20:01.693Z,5.40
2018-05-12T15:22:29.134Z,4.40
2018-05-12T15:24:56.653Z,5.07
2018-05-12T15:27:24.082Z,4.73
2018-05-12T15:29:51.527Z,5.33
2018-05-12T15:32:19.016Z,4.80
2018-05-12T15:34:46.444Z,4.97
2018-05-12T15:37:14.780Z,4.97
2018-05-12T15:39:42.206Z,4.90
2018-05-12T15:42:09.638Z,5.10
2018-05-12T15:44:37.078Z,5.30
2018-05-12T15:47:04.616Z,5.07
2018-05-12T15:49:32.053Z,12.43
2018-05-12T15:51:59.498Z,5.10
2018-05-12T15:54:26.982Z,5.07
2018-05-12T15:56:54.454Z,4.90
2018-05-12T15:59:21.897Z,5.13
2018-05-12T16:01:49.329Z,4.67
2018-05-12T16:04:16.762Z,5.70
2018-05-12T16:06:44.224Z,4.77
2018-05-12T16:09:11.703Z,4.73
2018-05-12T16:11:39.129Z,4.30
2018-05-12T16:14:06.614Z,3.90
2018-05-12T16:16:34.045Z,5.00
2018-05-12T16:19:01.495Z,4.63
2018-05-12T16:21:28.957Z,4.70
2018-05-12T16:23:56.706Z,4.80
2018-05-12T16:26:24.388Z,5.90
2018-05-12T16:28:52.132Z,10.00
2018-05-12T16:31:19.990Z,5.77
2018-05-12T16:33:47.660Z,5.97
2018-05-12T16:36:15.334Z,14.60
2018-05-12T16:38:43.084Z,5.60
2018-05-12T16:41:10.816Z,5.57
2018-05-12T16:43:38.513Z,4.73
2018-05-12T16:46:06.091Z,5.47
2018-05-12T16:48:33.728Z,5.63
2018-05-12T16:51:01.597Z,5.47
2018-05-12T16:53:29.042Z,7.33
2018-05-12T16:55:56.689Z,22.33
2018-05-12T16:58:24.357Z,11.07
2018-05-12T17:00:52.073Z,5.60
2018-05-12T17:03:20.290Z,5.40
2018-05-12T17:05:47.973Z,7.83
2018-05-12T17:08:15.582Z,5.47
2018-05-12T17:10:43.335Z,5.43
2018-05-12T17:13:11.139Z,5.17
2018-05-12T17:15:38.568Z,5.17
2018-05-12T17:18:06.284Z,4.87
2018-05-12T17:20:33.927Z,4.27
2018-05-12T17:23:01.518Z,4.80
2018-05-12T17:25:29.145Z,4.00
2018-05-12T17:27:56.716Z,3.47
2018-05-12T17:30:24.374Z,4.00
2018-05-12T17:32:51.994Z,3.77
2018-05-12T17:35:19.726Z,4.17
2018-05-12T17:37:47.385Z,4.73
2018-05-12T17:40:15.238Z,3.37
2018-05-12T17:42:43.106Z,3.50
2018-05-12T17:45:10.593Z,3.70
2018-05-12T17:47:38.026Z,3.57
2018-05-12T17:50:05.475Z,3.43
2018-05-12T17:52:32.905Z,3.30
2018-05-12T17:55:00.347Z,3.47
2018-05-12T17:57:27.793Z,3.50
2018-05-12T17:59:55.221Z,3.57
2018-05-12T18:02:22.653Z,4.70
2018-05-12T18:04:50.093Z,3.87
2018-05-12T18:07:17.537Z,4.00
2018-05-12T18:09:44.961Z,9.43
2018-05-12T18:12:12.413Z,11.27
2018-05-12T18:14:39.861Z,4.47
2018-05-12T18:17:07.307Z,7.63
2018-05-12T18:19:34.769Z,4.50
2018-05-12T18:22:02.197Z,3.90
2018-05-12T18:24:29.621Z,3.70
2018-05-12T18:26:57.161Z,3.97
2018-05-12T18:30:33.405Z,3.40
2018-05-12T18:33:00.887Z,4.37
2018-05-12T18:35:28.310Z,3.63
2018-05-12T18:37:55.774Z,4.30
2018-05-12T18:40:23.220Z,4.23
2018-05-12T18:42:50.641Z,4.17
2018-05-12T18:45:18.120Z,20.87
2018-05-12T18:47:45.566Z,6.13
2018-05-12T18:50:13.048Z,8.27
2018-05-12T18:52:40.483Z,4.70
2018-05-12T18:55:07.964Z,4.60
2018-05-12T18:57:35.400Z,3.60
2018-05-12T19:00:02.833Z,5.03
2018-05-12T19:02:30.301Z,3.97
2018-05-12T19:04:57.775Z,3.60
2018-05-12T19:07:25.197Z,4.20
2018-05-12T19:09:52.653Z,4.10
2018-05-12T19:12:20.090Z,6.10
2018-05-12T19:14:47.520Z,20.87
2018-05-12T19:17:15.038Z,11.07
2018-05-12T19:19:42.416Z,4.60
2018-05-12T19:22:09.851Z,5.10
2018-05-12T19:24:37.377Z,7.60
2018-05-12T19:27:04.832Z,5.60
2018-05-12T19:29:32.368Z,10.70
2018-05-12T19:31:59.811Z,8.17
2018-05-12T19:34:27.303Z,7.32
2018-05-12T19:36:54.730Z,6.10
2018-05-12T19:39:22.182Z,5.57
2018-05-12T19:41:49.670Z,5.30
2018-05-12T19:44:17.140Z,5.47
2018-05-12T19:46:44.582Z,5.53
2018-05-12T19:49:12.014Z,4.97
2018-05-12T19:51:39.444Z,6.10
2018-05-12T19:54:06.897Z,18.50
2018-05-12T19:56:34.334Z,11.73
2018-05-12T19:59:01.764Z,9.00
2018-05-12T20:01:29.205Z,8.63
2018-05-12T20:03:56.692Z,22.40
2018-05-12T20:06:24.093Z,14.50
2018-05-12T20:08:51.667Z,13.60
2018-05-12T20:11:19.097Z,12.40
2018-05-12T20:13:46.527Z,9.50
2018-05-12T20:16:13.979Z,8.20
2018-05-12T20:18:41.413Z,7.73
2018-05-12T20:21:08.840Z,7.07
2018-05-12T20:23:36.339Z,7.00
2018-05-12T20:26:03.796Z,8.60
2018-05-12T20:28:31.280Z,18.77
2018-05-12T20:30:58.740Z,10.87
2018-05-12T20:33:26.184Z,12.03
2018-05-12T20:35:53.606Z,7.43
2018-05-12T20:38:21.044Z,7.93
2018-05-12T20:40:48.536Z,8.87
2018-05-12T20:43:15.986Z,9.10
2018-05-12T20:45:43.424Z,8.97
2018-05-12T20:48:10.904Z,9.30
2018-05-12T20:50:38.329Z,9.37
2018-05-12T20:53:05.762Z,10.50
2018-05-12T20:55:33.188Z,10.07
2018-05-12T20:58:00.628Z,10.50
2018-05-12T21:00:28.081Z,9.70
2018-05-12T21:02:55.509Z,10.30
2018-05-12T21:05:22.937Z,10.23
2018-05-12T21:07:50.381Z,9.63
2018-05-12T21:10:17.809Z,9.00
2018-05-12T21:12:45.247Z,10.07
2018-05-12T21:15:12.684Z,10.40
2018-05-12T21:17:40.115Z,10.80
2018-05-12T21:20:07.550Z,10.40
2018-05-12T21:22:34.992Z,11.33
2018-05-12T21:25:02.434Z,10.50
2018-05-12T21:27:29.911Z,9.20
2018-05-12T21:29:57.355Z,10.00
2018-05-12T21:32:24.962Z,9.67
2018-05-12T21:34:52.408Z,10.43
2018-05-12T21:37:19.850Z,9.90
2018-05-12T21:39:47.298Z,10.53
2018-05-12T21:42:14.754Z,9.23
2018-05-12T21:44:42.197Z,9.87
2018-05-12T21:47:09.631Z,16.70
2018-05-12T21:49:37.122Z,16.23
2018-05-12T21:52:04.580Z,10.70
2018-05-12T21:54:32.026Z,10.10
2018-05-12T21:56:59.480Z,9.47
2018-05-12T21:59:26.923Z,10.47
2018-05-12T22:01:54.370Z,10.23
2018-05-12T22:04:21.794Z,10.47
2018-05-12T22:06:49.257Z,11.73
2018-05-12T22:09:16.681Z,9.77
2018-05-12T22:11:44.134Z,10.23
2018-05-12T22:14:11.569Z,9.70
2018-05-12T22:16:39.013Z,11.60
2018-05-12T22:19:06.457Z,11.43
2018-05-12T22:21:33.917Z,10.73
2018-05-12T22:24:01.350Z,11.30
2018-05-12T22:26:28.861Z,12.90
2018-05-12T22:28:56.305Z,12.20
2018-05-12T22:31:23.822Z,11.40
2018-05-12T22:33:51.373Z,11.30
2018-05-12T22:36:18.821Z,12.87
2018-05-12T22:38:46.267Z,11.47
2018-05-12T22:41:13.725Z,11.70
2018-05-12T22:43:41.168Z,12.60
2018-05-12T22:46:08.606Z,12.43
2018-05-12T22:48:36.050Z,12.70
2018-05-12T22:51:03.496Z,13.17
2018-05-12T22:53:30.942Z,13.17
2018-05-12T22:55:58.452Z,13.30
2018-05-12T22:58:25.901Z,13.07
2018-05-12T23:00:53.338Z,13.07
2018-05-12T23:03:20.768Z,11.73
2018-05-12T23:05:48.263Z,13.90
2018-05-12T23:08:15.705Z,12.93
2018-05-12T23:10:43.193Z,12.83
2018-05-12T23:13:10.636Z,14.13
2018-05-12T23:15:38.065Z,13.37
2018-05-12T23:18:05.495Z,12.50
2018-05-12T23:20:32.941Z,13.00
2018-05-12T23:23:00.375Z,13.70
2018-05-12T23:25:27.812Z,13.83
2018-05-12T23:27:55.272Z,14.13
2018-05-12T23:30:22.710Z,13.20
2018-05-12T23:32:50.146Z,13.90
2018-05-12T23:35:17.664Z,14.20
2018-05-12T23:37:45.148Z,13.43
2018-05-12T23:40:12.606Z,15.10
2018-05-12T23:42:40.050Z,15.73
2018-05-12T23:45:07.500Z,14.33
2018-05-12T23:47:34.954Z,14.80
2018-05-12T23:50:02.401Z,16.02
2018-05-12T23:52:29.838Z,14.23
2018-05-12T23:54:57.274Z,16.17
2018-05-12T23:57:24.716Z,15.63
2018-05-12T23:59:52.158Z,15.07
